Port Angeles, WA

2:07 AM PDT on May 07, 2015 (GMT -0700)
Foothills | | Change Station
CLOSE
Current Station
Personal Weather Station
Location: Old Mill & Simmons Port Angeles, WA
Elevation: 955 ft
Nearby Weather Stations

Elev 955 ft 48.08 °N, 123.45 °W | Updated 25 seconds ago

Clear
Clear
46.1 °F
Feels Like 46 °F
N
0.0
Wind Variable Wind from ESE
Gusts 3.0 mph

Today
High -- | Low -- °F
--% Chance of Precip.
Yesterday
High -- | Low -- °F
Precip. -- in
5:46 AM 8:35 PM
Waning Gibbous, 89% visible
Pressure 30.16 in
Visibility 10.0 miles
Clouds Clear
Windchill 46 °F
Dew Point 38 °F
Humidity 74%
Rainfall 0.00 in
Snow Depth Not available.
UV 0 out of 12
Pollen 7.60 out of 12
Air Quality Not available.
Flu Activity Sporadic
METAR KCLM 070853Z AUTO 25012G18KT 10SM CLR 09/02 A3015 RMK AO2 SLP211 T00890017 58000

More Conditions Fewer Conditions

Pressure 30.16 in
Visibility 10.0 miles
Clouds Clear
Windchill 46 °F
Dew Point 38 °F
Humidity 74%
Rainfall 0.00 in
Snow Depth Not available.
UV 0 out of 12
Pollen 7.60 out of 12
Air Quality Not available.
Flu Activity Sporadic
METAR KCLM 070853Z AUTO 25012G18KT 10SM CLR 09/02 A3015 RMK AO2 SLP211 T00890017 58000

More Conditions Fewer Conditions

10-Day Weather Forecast

Almanac

Astronomy

May. 07, 2015 Rise Set
Actual Time
Civil Twilight
Nautical Twilight
Astronomical Twilight
Moon
Length of Visible Light
Length of Day
Tomorrow will be .
, % of the Moon is Illuminated

Today's Extremes

State Highs State Lows

Community

WunderPhotos

Upload Photos

1,819,133 photos uploaded!

WunderBlogs® & News

Nearby

Air Quality

  Air Quality AQ Index Pollutant
Not available.

Snow Depth

Station Depth Elevation

Earthquake Activity

City Distance Mag. Time & Date
Minimum magnitude displayed is 2.5.

Coastal Water Temperatures

Place Temperature

Stations

Nearby Weather Stations

Station Location Temp. Windchill Dew Point Humidity Wind Precip. Elev Updated Type